sensor_id;sensor_type;location;lat;lon;timestamp;P1;durP1;ratioP1;P2;durP2;ratioP2
21769;SDS011;11046;49.558;8.674;2022-08-19T00:01:59;18.67;;;15.00;;
21769;SDS011;11046;49.558;8.674;2022-08-19T00:05:00;18.63;;;14.90;;
21769;SDS011;11046;49.558;8.674;2022-08-19T00:08:01;18.38;;;14.77;;
21769;SDS011;11046;49.558;8.674;2022-08-19T00:11:02;19.50;;;13.90;;
21769;SDS011;11046;49.558;8.674;2022-08-19T00:14:07;20.02;;;14.07;;
21769;SDS011;11046;49.558;8.674;2022-08-19T00:17:10;17.50;;;14.05;;
21769;SDS011;11046;49.558;8.674;2022-08-19T00:20:12;18.17;;;14.23;;
21769;SDS011;11046;49.558;8.674;2022-08-19T00:23:17;17.45;;;13.07;;
21769;SDS011;11046;49.558;8.674;2022-08-19T00:26:17;20.13;;;14.27;;
21769;SDS011;11046;49.558;8.674;2022-08-19T00:29:19;17.08;;;13.80;;
21769;SDS011;11046;49.558;8.674;2022-08-19T00:32:21;18.98;;;14.25;;
21769;SDS011;11046;49.558;8.674;2022-08-19T00:35:22;21.25;;;16.08;;
21769;SDS011;11046;49.558;8.674;2022-08-19T00:38:23;17.77;;;13.90;;
21769;SDS011;11046;49.558;8.674;2022-08-19T00:41:24;18.65;;;12.90;;
21769;SDS011;11046;49.558;8.674;2022-08-19T00:44:26;20.77;;;14.63;;
21769;SDS011;11046;49.558;8.674;2022-08-19T00:47:28;19.42;;;15.27;;
21769;SDS011;11046;49.558;8.674;2022-08-19T00:50:29;20.48;;;15.18;;
21769;SDS011;11046;49.558;8.674;2022-08-19T00:53:31;21.95;;;15.45;;
21769;SDS011;11046;49.558;8.674;2022-08-19T00:56:34;18.58;;;14.18;;
21769;SDS011;11046;49.558;8.674;2022-08-19T00:59:36;21.33;;;15.18;;
21769;SDS011;11046;49.558;8.674;2022-08-19T01:02:40;19.35;;;15.25;;
21769;SDS011;11046;49.558;8.674;2022-08-19T01:05:42;20.08;;;15.02;;
21769;SDS011;11046;49.558;8.674;2022-08-19T01:08:44;20.90;;;14.23;;
21769;SDS011;11046;49.558;8.674;2022-08-19T01:11:45;20.30;;;14.85;;
21769;SDS011;11046;49.558;8.674;2022-08-19T01:14:46;21.13;;;14.95;;
21769;SDS011;11046;49.558;8.674;2022-08-19T01:17:48;19.85;;;14.93;;
21769;SDS011;11046;49.558;8.674;2022-08-19T01:20:50;19.98;;;15.65;;
21769;SDS011;11046;49.558;8.674;2022-08-19T01:23:51;21.23;;;14.40;;
21769;SDS011;11046;49.558;8.674;2022-08-19T01:26:52;21.20;;;15.90;;
21769;SDS011;11046;49.558;8.674;2022-08-19T01:29:53;21.13;;;14.93;;
21769;SDS011;11046;49.558;8.674;2022-08-19T01:32:54;20.17;;;15.27;;
21769;SDS011;11046;49.558;8.674;2022-08-19T01:36:02;23.60;;;15.25;;
21769;SDS011;11046;49.558;8.674;2022-08-19T01:39:12;23.02;;;16.60;;
21769;SDS011;11046;49.558;8.674;2022-08-19T01:42:16;23.90;;;16.80;;
21769;SDS011;11046;49.558;8.674;2022-08-19T01:45:17;22.92;;;15.57;;
21769;SDS011;11046;49.558;8.674;2022-08-19T01:48:18;20.80;;;15.48;;
21769;SDS011;11046;49.558;8.674;2022-08-19T01:51:19;19.13;;;15.43;;
21769;SDS011;11046;49.558;8.674;2022-08-19T01:54:20;19.15;;;15.02;;
21769;SDS011;11046;49.558;8.674;2022-08-19T01:57:23;22.42;;;15.27;;
21769;SDS011;11046;49.558;8.674;2022-08-19T02:00:24;21.67;;;14.98;;
21769;SDS011;11046;49.558;8.674;2022-08-19T02:03:27;19.35;;;15.45;;
21769;SDS011;11046;49.558;8.674;2022-08-19T02:06:29;21.83;;;16.40;;
21769;SDS011;11046;49.558;8.674;2022-08-19T02:09:30;23.02;;;15.05;;
21769;SDS011;11046;49.558;8.674;2022-08-19T02:12:32;20.58;;;15.48;;
21769;SDS011;11046;49.558;8.674;2022-08-19T02:15:33;22.20;;;14.77;;
21769;SDS011;11046;49.558;8.674;2022-08-19T02:18:33;20.45;;;15.00;;
21769;SDS011;11046;49.558;8.674;2022-08-19T02:21:34;19.17;;;14.75;;
21769;SDS011;11046;49.558;8.674;2022-08-19T02:24:35;21.75;;;15.73;;
21769;SDS011;11046;49.558;8.674;2022-08-19T02:27:36;22.00;;;16.27;;
21769;SDS011;11046;49.558;8.674;2022-08-19T02:30:37;20.90;;;15.52;;
21769;SDS011;11046;49.558;8.674;2022-08-19T02:33:38;20.60;;;15.68;;
21769;SDS011;11046;49.558;8.674;2022-08-19T02:36:39;22.92;;;15.48;;
21769;SDS011;11046;49.558;8.674;2022-08-19T02:39:40;22.63;;;15.25;;
21769;SDS011;11046;49.558;8.674;2022-08-19T02:42:40;22.10;;;15.55;;
21769;SDS011;11046;49.558;8.674;2022-08-19T02:45:42;21.40;;;14.73;;
21769;SDS011;11046;49.558;8.674;2022-08-19T02:48:43;23.90;;;15.50;;
21769;SDS011;11046;49.558;8.674;2022-08-19T02:51:44;20.83;;;15.35;;
21769;SDS011;11046;49.558;8.674;2022-08-19T02:54:46;25.42;;;15.60;;
21769;SDS011;11046;49.558;8.674;2022-08-19T02:57:46;20.52;;;14.63;;
21769;SDS011;11046;49.558;8.674;2022-08-19T03:00:50;20.45;;;15.15;;
21769;SDS011;11046;49.558;8.674;2022-08-19T03:03:52;22.10;;;15.35;;
21769;SDS011;11046;49.558;8.674;2022-08-19T03:06:54;20.75;;;14.95;;
21769;SDS011;11046;49.558;8.674;2022-08-19T03:09:54;21.20;;;15.63;;
21769;SDS011;11046;49.558;8.674;2022-08-19T03:12:55;25.52;;;15.65;;
21769;SDS011;11046;49.558;8.674;2022-08-19T03:15:56;22.48;;;15.40;;
21769;SDS011;11046;49.558;8.674;2022-08-19T03:18:57;21.88;;;15.60;;
21769;SDS011;11046;49.558;8.674;2022-08-19T03:22:01;22.60;;;14.80;;
21769;SDS011;11046;49.558;8.674;2022-08-19T03:25:02;22.70;;;15.25;;
21769;SDS011;11046;49.558;8.674;2022-08-19T03:28:03;22.77;;;15.68;;
21769;SDS011;11046;49.558;8.674;2022-08-19T03:31:06;22.25;;;15.63;;
21769;SDS011;11046;49.558;8.674;2022-08-19T03:34:09;22.17;;;16.05;;
21769;SDS011;11046;49.558;8.674;2022-08-19T03:37:11;22.02;;;15.25;;
21769;SDS011;11046;49.558;8.674;2022-08-19T03:40:12;22.38;;;15.50;;
21769;SDS011;11046;49.558;8.674;2022-08-19T03:43:13;21.98;;;15.60;;
21769;SDS011;11046;49.558;8.674;2022-08-19T03:46:19;24.27;;;16.85;;
21769;SDS011;11046;49.558;8.674;2022-08-19T03:49:22;22.77;;;15.82;;
21769;SDS011;11046;49.558;8.674;2022-08-19T03:52:24;22.77;;;16.15;;
21769;SDS011;11046;49.558;8.674;2022-08-19T03:55:25;25.35;;;15.82;;
21769;SDS011;11046;49.558;8.674;2022-08-19T03:58:26;30.25;;;18.08;;
21769;SDS011;11046;49.558;8.674;2022-08-19T04:01:28;26.10;;;17.15;;
21769;SDS011;11046;49.558;8.674;2022-08-19T04:04:30;26.20;;;17.02;;
21769;SDS011;11046;49.558;8.674;2022-08-19T04:07:30;24.42;;;16.30;;
21769;SDS011;11046;49.558;8.674;2022-08-19T04:10:35;24.17;;;17.08;;
21769;SDS011;11046;49.558;8.674;2022-08-19T04:13:37;27.55;;;17.48;;
21769;SDS011;11046;49.558;8.674;2022-08-19T04:16:38;27.27;;;16.35;;
21769;SDS011;11046;49.558;8.674;2022-08-19T04:19:39;24.55;;;17.05;;
21769;SDS011;11046;49.558;8.674;2022-08-19T04:22:40;27.20;;;17.52;;
21769;SDS011;11046;49.558;8.674;2022-08-19T04:25:42;27.55;;;16.33;;
21769;SDS011;11046;49.558;8.674;2022-08-19T04:28:43;27.85;;;16.48;;
21769;SDS011;11046;49.558;8.674;2022-08-19T04:31:44;24.13;;;16.10;;
21769;SDS011;11046;49.558;8.674;2022-08-19T04:34:45;24.33;;;16.38;;
21769;SDS011;11046;49.558;8.674;2022-08-19T04:37:45;25.85;;;17.60;;
21769;SDS011;11046;49.558;8.674;2022-08-19T04:40:47;23.92;;;16.13;;
21769;SDS011;11046;49.558;8.674;2022-08-19T04:44:08;27.20;;;16.65;;
21769;SDS011;11046;49.558;8.674;2022-08-19T04:47:10;27.27;;;16.52;;
21769;SDS011;11046;49.558;8.674;2022-08-19T04:50:10;22.90;;;15.95;;
21769;SDS011;11046;49.558;8.674;2022-08-19T04:53:11;22.98;;;15.50;;
21769;SDS011;11046;49.558;8.674;2022-08-19T04:56:13;23.95;;;16.63;;
21769;SDS011;11046;49.558;8.674;2022-08-19T04:59:15;25.52;;;16.42;;
21769;SDS011;11046;49.558;8.674;2022-08-19T05:02:18;23.45;;;15.75;;
21769;SDS011;11046;49.558;8.674;2022-08-19T05:05:19;23.50;;;15.57;;
21769;SDS011;11046;49.558;8.674;2022-08-19T05:08:21;28.13;;;16.42;;
21769;SDS011;11046;49.558;8.674;2022-08-19T05:11:23;24.02;;;16.17;;
21769;SDS011;11046;49.558;8.674;2022-08-19T05:14:25;23.85;;;17.15;;
21769;SDS011;11046;49.558;8.674;2022-08-19T05:17:27;24.02;;;16.42;;
21769;SDS011;11046;49.558;8.674;2022-08-19T05:20:28;26.73;;;15.85;;
21769;SDS011;11046;49.558;8.674;2022-08-19T05:23:47;26.70;;;16.75;;
21769;SDS011;11046;49.558;8.674;2022-08-19T05:26:50;28.33;;;16.35;;
21769;SDS011;11046;49.558;8.674;2022-08-19T05:29:51;22.58;;;16.15;;
21769;SDS011;11046;49.558;8.674;2022-08-19T05:32:52;26.25;;;16.58;;
21769;SDS011;11046;49.558;8.674;2022-08-19T05:35:53;27.90;;;16.02;;
21769;SDS011;11046;49.558;8.674;2022-08-19T05:38:54;24.02;;;16.70;;
21769;SDS011;11046;49.558;8.674;2022-08-19T05:41:56;30.00;;;17.88;;
21769;SDS011;11046;49.558;8.674;2022-08-19T05:44:59;30.40;;;19.05;;
21769;SDS011;11046;49.558;8.674;2022-08-19T05:48:00;27.45;;;19.33;;
21769;SDS011;11046;49.558;8.674;2022-08-19T05:51:07;33.63;;;20.33;;
21769;SDS011;11046;49.558;8.674;2022-08-19T05:54:08;25.77;;;18.02;;
21769;SDS011;11046;49.558;8.674;2022-08-19T05:57:11;28.63;;;18.27;;
21769;SDS011;11046;49.558;8.674;2022-08-19T06:00:12;26.73;;;18.10;;
21769;SDS011;11046;49.558;8.674;2022-08-19T06:03:13;30.15;;;18.40;;
21769;SDS011;11046;49.558;8.674;2022-08-19T06:06:14;25.45;;;16.77;;
21769;SDS011;11046;49.558;8.674;2022-08-19T06:09:16;26.30;;;18.25;;
21769;SDS011;11046;49.558;8.674;2022-08-19T06:12:17;27.35;;;17.10;;
21769;SDS011;11046;49.558;8.674;2022-08-19T06:15:18;28.98;;;16.90;;
21769;SDS011;11046;49.558;8.674;2022-08-19T06:18:18;27.55;;;18.10;;
21769;SDS011;11046;49.558;8.674;2022-08-19T06:21:20;25.15;;;17.00;;
21769;SDS011;11046;49.558;8.674;2022-08-19T06:24:23;27.80;;;17.08;;
21769;SDS011;11046;49.558;8.674;2022-08-19T06:27:25;27.58;;;16.75;;
21769;SDS011;11046;49.558;8.674;2022-08-19T06:30:26;24.77;;;16.27;;
21769;SDS011;11046;49.558;8.674;2022-08-19T06:33:27;25.23;;;16.38;;
21769;SDS011;11046;49.558;8.674;2022-08-19T06:36:33;21.77;;;14.95;;
21769;SDS011;11046;49.558;8.674;2022-08-19T06:39:39;24.80;;;16.05;;
21769;SDS011;11046;49.558;8.674;2022-08-19T06:42:41;25.30;;;15.43;;
21769;SDS011;11046;49.558;8.674;2022-08-19T06:45:42;23.92;;;16.42;;
21769;SDS011;11046;49.558;8.674;2022-08-19T06:48:42;24.65;;;16.10;;
21769;SDS011;11046;49.558;8.674;2022-08-19T06:51:44;23.65;;;16.50;;
21769;SDS011;11046;49.558;8.674;2022-08-19T06:54:47;22.13;;;15.10;;
21769;SDS011;11046;49.558;8.674;2022-08-19T06:57:48;22.65;;;15.93;;
21769;SDS011;11046;49.558;8.674;2022-08-19T07:00:50;25.77;;;16.08;;
21769;SDS011;11046;49.558;8.674;2022-08-19T07:03:51;26.63;;;16.17;;
21769;SDS011;11046;49.558;8.674;2022-08-19T07:07:00;23.08;;;15.25;;
21769;SDS011;11046;49.558;8.674;2022-08-19T07:10:03;22.17;;;14.75;;
21769;SDS011;11046;49.558;8.674;2022-08-19T07:13:05;23.08;;;14.82;;
21769;SDS011;11046;49.558;8.674;2022-08-19T07:16:06;19.48;;;13.88;;
21769;SDS011;11046;49.558;8.674;2022-08-19T07:19:08;17.95;;;13.88;;
21769;SDS011;11046;49.558;8.674;2022-08-19T07:22:09;20.60;;;14.10;;
21769;SDS011;11046;49.558;8.674;2022-08-19T07:25:10;20.23;;;13.52;;
21769;SDS011;11046;49.558;8.674;2022-08-19T07:28:13;20.63;;;13.63;;
21769;SDS011;11046;49.558;8.674;2022-08-19T07:31:15;18.77;;;13.38;;
21769;SDS011;11046;49.558;8.674;2022-08-19T07:34:18;18.00;;;13.50;;
21769;SDS011;11046;49.558;8.674;2022-08-19T07:37:19;18.67;;;12.77;;
21769;SDS011;11046;49.558;8.674;2022-08-19T07:40:19;20.50;;;12.52;;
21769;SDS011;11046;49.558;8.674;2022-08-19T07:43:20;20.88;;;13.43;;
21769;SDS011;11046;49.558;8.674;2022-08-19T07:46:25;17.27;;;12.65;;
21769;SDS011;11046;49.558;8.674;2022-08-19T07:49:28;19.23;;;13.43;;
21769;SDS011;11046;49.558;8.674;2022-08-19T07:52:29;17.80;;;13.80;;
21769;SDS011;11046;49.558;8.674;2022-08-19T07:55:30;17.95;;;12.48;;
21769;SDS011;11046;49.558;8.674;2022-08-19T07:58:31;21.35;;;13.38;;
21769;SDS011;11046;49.558;8.674;2022-08-19T08:01:34;19.45;;;12.40;;
21769;SDS011;11046;49.558;8.674;2022-08-19T08:04:36;19.65;;;11.85;;
21769;SDS011;11046;49.558;8.674;2022-08-19T08:07:55;16.40;;;11.90;;
21769;SDS011;11046;49.558;8.674;2022-08-19T08:11:19;16.23;;;11.50;;
21769;SDS011;11046;49.558;8.674;2022-08-19T08:14:22;15.60;;;11.18;;
21769;SDS011;11046;49.558;8.674;2022-08-19T08:17:30;13.95;;;10.40;;
21769;SDS011;11046;49.558;8.674;2022-08-19T08:20:32;14.02;;;10.73;;
21769;SDS011;11046;49.558;8.674;2022-08-19T08:23:33;14.75;;;10.75;;
21769;SDS011;11046;49.558;8.674;2022-08-19T08:26:33;14.57;;;10.10;;
21769;SDS011;11046;49.558;8.674;2022-08-19T08:29:34;15.35;;;10.85;;
21769;SDS011;11046;49.558;8.674;2022-08-19T08:32:38;13.98;;;10.27;;
21769;SDS011;11046;49.558;8.674;2022-08-19T08:35:40;15.95;;;9.77;;
21769;SDS011;11046;49.558;8.674;2022-08-19T08:38:42;12.07;;;9.52;;
21769;SDS011;11046;49.558;8.674;2022-08-19T08:41:53;11.00;;;9.00;;
21769;SDS011;11046;49.558;8.674;2022-08-19T08:45:19;13.93;;;8.20;;
21769;SDS011;11046;49.558;8.674;2022-08-19T08:48:27;10.68;;;8.00;;
21769;SDS011;11046;49.558;8.674;2022-08-19T08:51:40;13.18;;;7.05;;
21769;SDS011;11046;49.558;8.674;2022-08-19T08:54:46;9.48;;;6.78;;
21769;SDS011;11046;49.558;8.674;2022-08-19T08:57:55;12.35;;;6.95;;
21769;SDS011;11046;49.558;8.674;2022-08-19T09:00:58;11.88;;;6.57;;
21769;SDS011;11046;49.558;8.674;2022-08-19T09:03:58;8.07;;;7.13;;
21769;SDS011;11046;49.558;8.674;2022-08-19T09:10:05;9.52;;;6.47;;
21769;SDS011;11046;49.558;8.674;2022-08-19T09:13:27;7.95;;;6.05;;
21769;SDS011;11046;49.558;8.674;2022-08-19T09:16:31;12.82;;;6.80;;
21769;SDS011;11046;49.558;8.674;2022-08-19T09:19:32;7.15;;;6.43;;
21769;SDS011;11046;49.558;8.674;2022-08-19T09:22:33;13.07;;;6.00;;
21769;SDS011;11046;49.558;8.674;2022-08-19T09:25:35;7.90;;;6.30;;
21769;SDS011;11046;49.558;8.674;2022-08-19T09:28:36;9.48;;;6.53;;
21769;SDS011;11046;49.558;8.674;2022-08-19T09:31:37;7.90;;;6.57;;
21769;SDS011;11046;49.558;8.674;2022-08-19T09:34:38;10.52;;;5.65;;
21769;SDS011;11046;49.558;8.674;2022-08-19T09:37:39;12.07;;;7.18;;
21769;SDS011;11046;49.558;8.674;2022-08-19T09:40:41;8.20;;;6.00;;
21769;SDS011;11046;49.558;8.674;2022-08-19T09:43:43;8.10;;;5.63;;
21769;SDS011;11046;49.558;8.674;2022-08-19T09:46:45;7.20;;;5.63;;
21769;SDS011;11046;49.558;8.674;2022-08-19T09:49:49;8.00;;;5.95;;
21769;SDS011;11046;49.558;8.674;2022-08-19T09:52:50;11.13;;;5.13;;
21769;SDS011;11046;49.558;8.674;2022-08-19T09:55:54;7.03;;;5.68;;
21769;SDS011;11046;49.558;8.674;2022-08-19T09:58:57;5.75;;;4.47;;
21769;SDS011;11046;49.558;8.674;2022-08-19T10:01:59;10.70;;;5.60;;
21769;SDS011;11046;49.558;8.674;2022-08-19T10:05:00;8.98;;;5.22;;
21769;SDS011;11046;49.558;8.674;2022-08-19T10:08:20;5.82;;;4.40;;
21769;SDS011;11046;49.558;8.674;2022-08-19T10:11:23;9.90;;;5.63;;
21769;SDS011;11046;49.558;8.674;2022-08-19T10:14:25;7.80;;;5.10;;
21769;SDS011;11046;49.558;8.674;2022-08-19T10:17:26;6.30;;;4.70;;
21769;SDS011;11046;49.558;8.674;2022-08-19T10:20:26;9.38;;;4.60;;
21769;SDS011;11046;49.558;8.674;2022-08-19T10:23:28;7.47;;;4.65;;
21769;SDS011;11046;49.558;8.674;2022-08-19T10:26:30;5.38;;;4.40;;
21769;SDS011;11046;49.558;8.674;2022-08-19T10:29:34;7.38;;;4.70;;
21769;SDS011;11046;49.558;8.674;2022-08-19T10:32:35;5.50;;;4.40;;
21769;SDS011;11046;49.558;8.674;2022-08-19T10:35:36;6.10;;;3.83;;
21769;SDS011;11046;49.558;8.674;2022-08-19T10:38:37;7.82;;;4.10;;
21769;SDS011;11046;49.558;8.674;2022-08-19T10:41:39;8.07;;;4.45;;
21769;SDS011;11046;49.558;8.674;2022-08-19T10:44:40;5.05;;;4.55;;
21769;SDS011;11046;49.558;8.674;2022-08-19T10:47:42;6.97;;;4.20;;
21769;SDS011;11046;49.558;8.674;2022-08-19T10:50:43;5.55;;;4.05;;
21769;SDS011;11046;49.558;8.674;2022-08-19T10:54:02;6.07;;;4.10;;
21769;SDS011;11046;49.558;8.674;2022-08-19T10:57:04;4.35;;;3.88;;
21769;SDS011;11046;49.558;8.674;2022-08-19T11:00:05;9.10;;;4.38;;
21769;SDS011;11046;49.558;8.674;2022-08-19T11:03:06;10.07;;;4.28;;
21769;SDS011;11046;49.558;8.674;2022-08-19T11:06:07;4.95;;;4.40;;
21769;SDS011;11046;49.558;8.674;2022-08-19T11:09:09;7.05;;;4.75;;
21769;SDS011;11046;49.558;8.674;2022-08-19T11:12:11;7.85;;;4.63;;
21769;SDS011;11046;49.558;8.674;2022-08-19T11:15:12;8.48;;;4.65;;
21769;SDS011;11046;49.558;8.674;2022-08-19T11:18:13;6.72;;;5.10;;
21769;SDS011;11046;49.558;8.674;2022-08-19T11:21:15;5.97;;;5.10;;
21769;SDS011;11046;49.558;8.674;2022-08-19T11:24:23;5.72;;;5.18;;
21769;SDS011;11046;49.558;8.674;2022-08-19T11:27:25;5.45;;;4.95;;
21769;SDS011;11046;49.558;8.674;2022-08-19T11:30:26;6.57;;;5.72;;
21769;SDS011;11046;49.558;8.674;2022-08-19T11:33:27;12.18;;;6.72;;
21769;SDS011;11046;49.558;8.674;2022-08-19T11:36:29;9.50;;;7.00;;
21769;SDS011;11046;49.558;8.674;2022-08-19T11:39:33;8.20;;;6.47;;
21769;SDS011;11046;49.558;8.674;2022-08-19T11:42:34;8.23;;;6.50;;
21769;SDS011;11046;49.558;8.674;2022-08-19T11:45:53;9.65;;;7.25;;
21769;SDS011;11046;49.558;8.674;2022-08-19T11:48:56;7.35;;;6.65;;
21769;SDS011;11046;49.558;8.674;2022-08-19T11:51:59;7.05;;;5.93;;
21769;SDS011;11046;49.558;8.674;2022-08-19T11:54:59;7.25;;;6.53;;
21769;SDS011;11046;49.558;8.674;2022-08-19T11:58:00;7.25;;;6.55;;
21769;SDS011;11046;49.558;8.674;2022-08-19T12:01:04;9.55;;;6.97;;
21769;SDS011;11046;49.558;8.674;2022-08-19T12:04:06;7.25;;;6.40;;
21769;SDS011;11046;49.558;8.674;2022-08-19T12:07:07;7.65;;;6.80;;
21769;SDS011;11046;49.558;8.674;2022-08-19T12:10:08;7.93;;;7.13;;
21769;SDS011;11046;49.558;8.674;2022-08-19T12:13:09;8.68;;;7.80;;
21769;SDS011;11046;49.558;8.674;2022-08-19T12:16:11;8.57;;;7.72;;
21769;SDS011;11046;49.558;8.674;2022-08-19T12:19:14;8.63;;;7.57;;
21769;SDS011;11046;49.558;8.674;2022-08-19T12:22:15;8.43;;;7.63;;
21769;SDS011;11046;49.558;8.674;2022-08-19T12:25:16;8.02;;;7.22;;
21769;SDS011;11046;49.558;8.674;2022-08-19T12:28:21;9.23;;;8.30;;
21769;SDS011;11046;49.558;8.674;2022-08-19T12:31:23;8.93;;;7.60;;
21769;SDS011;11046;49.558;8.674;2022-08-19T12:34:23;7.90;;;7.10;;
21769;SDS011;11046;49.558;8.674;2022-08-19T12:37:24;7.88;;;7.07;;
21769;SDS011;11046;49.558;8.674;2022-08-19T12:40:25;7.68;;;6.72;;
21769;SDS011;11046;49.558;8.674;2022-08-19T12:43:26;8.50;;;6.43;;
21769;SDS011;11046;49.558;8.674;2022-08-19T12:46:27;10.68;;;6.93;;
21769;SDS011;11046;49.558;8.674;2022-08-19T12:49:28;12.27;;;6.97;;
21769;SDS011;11046;49.558;8.674;2022-08-19T12:52:31;11.35;;;5.88;;
21769;SDS011;11046;49.558;8.674;2022-08-19T12:55:31;7.00;;;6.30;;
21769;SDS011;11046;49.558;8.674;2022-08-19T12:58:32;6.97;;;5.78;;
21769;SDS011;11046;49.558;8.674;2022-08-19T13:01:34;6.68;;;5.57;;
21769;SDS011;11046;49.558;8.674;2022-08-19T13:04:35;6.47;;;5.68;;
21769;SDS011;11046;49.558;8.674;2022-08-19T13:07:38;6.40;;;5.80;;
21769;SDS011;11046;49.558;8.674;2022-08-19T13:10:39;7.50;;;5.63;;
21769;SDS011;11046;49.558;8.674;2022-08-19T13:13:41;6.63;;;5.93;;
21769;SDS011;11046;49.558;8.674;2022-08-19T13:16:43;7.65;;;5.70;;
21769;SDS011;11046;49.558;8.674;2022-08-19T13:19:43;6.57;;;5.20;;
21769;SDS011;11046;49.558;8.674;2022-08-19T13:22:45;7.90;;;5.45;;
21769;SDS011;11046;49.558;8.674;2022-08-19T13:25:55;5.38;;;4.88;;
21769;SDS011;11046;49.558;8.674;2022-08-19T13:28:56;5.53;;;4.93;;
21769;SDS011;11046;49.558;8.674;2022-08-19T13:32:15;6.72;;;5.13;;
21769;SDS011;11046;49.558;8.674;2022-08-19T13:35:34;10.27;;;5.13;;
21769;SDS011;11046;49.558;8.674;2022-08-19T13:38:35;5.40;;;4.90;;
21769;SDS011;11046;49.558;8.674;2022-08-19T13:41:42;4.35;;;3.92;;
21769;SDS011;11046;49.558;8.674;2022-08-19T13:44:47;4.93;;;4.40;;
21769;SDS011;11046;49.558;8.674;2022-08-19T13:47:49;4.93;;;4.40;;
21769;SDS011;11046;49.558;8.674;2022-08-19T13:50:52;5.32;;;4.82;;
21769;SDS011;11046;49.558;8.674;2022-08-19T13:53:54;6.35;;;4.82;;
21769;SDS011;11046;49.558;8.674;2022-08-19T13:56:55;5.70;;;5.10;;
21769;SDS011;11046;49.558;8.674;2022-08-19T13:59:57;6.60;;;5.30;;
21769;SDS011;11046;49.558;8.674;2022-08-19T14:02:58;5.80;;;5.25;;
21769;SDS011;11046;49.558;8.674;2022-08-19T14:05:59;7.25;;;5.00;;
21769;SDS011;11046;49.558;8.674;2022-08-19T14:08:59;5.18;;;4.78;;
21769;SDS011;11046;49.558;8.674;2022-08-19T14:12:02;5.63;;;5.00;;
21769;SDS011;11046;49.558;8.674;2022-08-19T14:15:04;5.88;;;5.28;;
21769;SDS011;11046;49.558;8.674;2022-08-19T14:18:06;5.47;;;4.93;;
21769;SDS011;11046;49.558;8.674;2022-08-19T14:21:08;5.25;;;4.57;;
21769;SDS011;11046;49.558;8.674;2022-08-19T14:24:15;5.35;;;4.82;;
21769;SDS011;11046;49.558;8.674;2022-08-19T14:27:16;9.60;;;4.95;;
21769;SDS011;11046;49.558;8.674;2022-08-19T14:30:19;6.47;;;4.82;;
21769;SDS011;11046;49.558;8.674;2022-08-19T14:33:21;6.82;;;5.65;;
21769;SDS011;11046;49.558;8.674;2022-08-19T14:36:22;6.07;;;5.22;;
21769;SDS011;11046;49.558;8.674;2022-08-19T14:39:23;7.38;;;5.38;;
21769;SDS011;11046;49.558;8.674;2022-08-19T14:42:24;9.82;;;4.93;;
21769;SDS011;11046;49.558;8.674;2022-08-19T14:45:26;6.63;;;4.72;;
21769;SDS011;11046;49.558;8.674;2022-08-19T14:48:27;5.60;;;5.10;;
21769;SDS011;11046;49.558;8.674;2022-08-19T14:51:28;6.78;;;5.07;;
21769;SDS011;11046;49.558;8.674;2022-08-19T14:54:29;5.97;;;5.22;;
21769;SDS011;11046;49.558;8.674;2022-08-19T14:57:30;5.97;;;4.63;;
21769;SDS011;11046;49.558;8.674;2022-08-19T15:00:30;5.20;;;4.70;;
21769;SDS011;11046;49.558;8.674;2022-08-19T15:03:31;6.18;;;4.70;;
21769;SDS011;11046;49.558;8.674;2022-08-19T15:06:32;5.25;;;4.70;;
21769;SDS011;11046;49.558;8.674;2022-08-19T15:09:33;4.97;;;4.47;;
21769;SDS011;11046;49.558;8.674;2022-08-19T15:12:34;6.53;;;4.78;;
21769;SDS011;11046;49.558;8.674;2022-08-19T15:15:35;6.13;;;4.90;;
21769;SDS011;11046;49.558;8.674;2022-08-19T15:18:35;4.70;;;4.30;;
21769;SDS011;11046;49.558;8.674;2022-08-19T15:21:36;5.78;;;3.85;;
21769;SDS011;11046;49.558;8.674;2022-08-19T15:24:37;6.35;;;3.80;;
21769;SDS011;11046;49.558;8.674;2022-08-19T15:27:38;6.13;;;4.25;;
21769;SDS011;11046;49.558;8.674;2022-08-19T15:30:39;4.20;;;3.80;;
21769;SDS011;11046;49.558;8.674;2022-08-19T15:33:40;4.80;;;4.15;;
21769;SDS011;11046;49.558;8.674;2022-08-19T15:36:44;4.80;;;4.40;;
21769;SDS011;11046;49.558;8.674;2022-08-19T15:39:44;5.05;;;4.55;;
21769;SDS011;11046;49.558;8.674;2022-08-19T15:42:45;5.47;;;4.68;;
21769;SDS011;11046;49.558;8.674;2022-08-19T15:45:48;7.00;;;4.28;;
21769;SDS011;11046;49.558;8.674;2022-08-19T15:48:50;7.60;;;4.20;;
21769;SDS011;11046;49.558;8.674;2022-08-19T15:51:51;4.70;;;4.18;;
21769;SDS011;11046;49.558;8.674;2022-08-19T15:54:53;4.97;;;4.50;;
21769;SDS011;11046;49.558;8.674;2022-08-19T15:57:53;5.20;;;4.30;;
21769;SDS011;11046;49.558;8.674;2022-08-19T16:01:13;5.07;;;3.80;;
21769;SDS011;11046;49.558;8.674;2022-08-19T16:04:31;8.68;;;4.88;;
21769;SDS011;11046;49.558;8.674;2022-08-19T16:07:50;5.80;;;4.40;;
21769;SDS011;11046;49.558;8.674;2022-08-19T16:10:51;5.88;;;3.90;;
21769;SDS011;11046;49.558;8.674;2022-08-19T16:13:52;4.03;;;3.38;;
21769;SDS011;11046;49.558;8.674;2022-08-19T16:16:53;5.03;;;3.17;;
21769;SDS011;11046;49.558;8.674;2022-08-19T16:19:55;6.05;;;4.07;;
21769;SDS011;11046;49.558;8.674;2022-08-19T16:22:56;4.53;;;4.10;;
21769;SDS011;11046;49.558;8.674;2022-08-19T16:25:58;4.60;;;3.78;;
21769;SDS011;11046;49.558;8.674;2022-08-19T16:28:59;6.15;;;3.90;;
21769;SDS011;11046;49.558;8.674;2022-08-19T16:32:05;4.60;;;4.00;;
21769;SDS011;11046;49.558;8.674;2022-08-19T16:35:10;5.60;;;4.53;;
21769;SDS011;11046;49.558;8.674;2022-08-19T16:38:11;4.97;;;4.47;;
21769;SDS011;11046;49.558;8.674;2022-08-19T16:41:12;4.82;;;4.32;;
21769;SDS011;11046;49.558;8.674;2022-08-19T16:44:16;6.07;;;4.22;;
21769;SDS011;11046;49.558;8.674;2022-08-19T16:47:18;10.65;;;3.90;;
21769;SDS011;11046;49.558;8.674;2022-08-19T16:50:19;8.18;;;4.45;;
21769;SDS011;11046;49.558;8.674;2022-08-19T16:53:22;6.03;;;4.68;;
21769;SDS011;11046;49.558;8.674;2022-08-19T16:56:27;4.53;;;4.13;;
21769;SDS011;11046;49.558;8.674;2022-08-19T16:59:28;5.70;;;4.68;;
21769;SDS011;11046;49.558;8.674;2022-08-19T17:02:28;6.93;;;4.88;;
21769;SDS011;11046;49.558;8.674;2022-08-19T17:05:29;7.05;;;4.55;;
21769;SDS011;11046;49.558;8.674;2022-08-19T17:08:30;5.45;;;4.80;;
21769;SDS011;11046;49.558;8.674;2022-08-19T17:11:31;7.88;;;4.80;;
21769;SDS011;11046;49.558;8.674;2022-08-19T17:14:32;6.28;;;4.60;;
21769;SDS011;11046;49.558;8.674;2022-08-19T17:17:33;5.97;;;5.00;;
21769;SDS011;11046;49.558;8.674;2022-08-19T17:20:35;5.80;;;5.10;;
21769;SDS011;11046;49.558;8.674;2022-08-19T17:23:37;6.30;;;4.88;;
21769;SDS011;11046;49.558;8.674;2022-08-19T17:26:38;6.35;;;5.15;;
21769;SDS011;11046;49.558;8.674;2022-08-19T17:29:38;6.05;;;5.15;;
21769;SDS011;11046;49.558;8.674;2022-08-19T17:32:39;5.70;;;5.10;;
21769;SDS011;11046;49.558;8.674;2022-08-19T17:35:41;6.28;;;4.95;;
21769;SDS011;11046;49.558;8.674;2022-08-19T17:38:43;6.05;;;5.45;;
21769;SDS011;11046;49.558;8.674;2022-08-19T17:41:44;8.55;;;5.05;;
21769;SDS011;11046;49.558;8.674;2022-08-19T17:44:51;7.13;;;5.40;;
21769;SDS011;11046;49.558;8.674;2022-08-19T17:48:01;6.20;;;5.60;;
21769;SDS011;11046;49.558;8.674;2022-08-19T17:51:11;7.72;;;5.38;;
21769;SDS011;11046;49.558;8.674;2022-08-19T17:54:17;8.48;;;5.60;;
21769;SDS011;11046;49.558;8.674;2022-08-19T17:57:18;6.40;;;5.35;;
21769;SDS011;11046;49.558;8.674;2022-08-19T18:00:20;6.28;;;5.20;;
21769;SDS011;11046;49.558;8.674;2022-08-19T18:03:21;6.68;;;5.85;;
21769;SDS011;11046;49.558;8.674;2022-08-19T18:06:21;6.03;;;5.43;;